首页
METAR-TAF:

METAR-TAF

机场 :

桑坦德, 西班牙

纬度: 43-26N, 经度: 003-49W, 海拔: 6米

当前天气观测

该预报发布于20分钟前的05:00 UTC
静风
温度 6°C
湿度 93%
气压 1017 hPa
能见度10公里或以上
1500米以下无云,无积雨云

METAR: LEXJ 190500Z 00000KT CAVOK 06/05 Q1017

时间: 06:20 (05:20 UTC)

预报

该预报发布于3小时和20分钟前的02:00 UTC
预报有效从19日的 03点(UTC)到 20日的 03点(UTC)
风速8节,风向西南
能见度10公里或以上
少量云层高于2000英尺
散云层高于3000英尺

TAF: LEXJ 190200Z 1903/2003 22008KT 9999 FEW020 SCT030 TX13/1913Z TN05/1906Z

超过4000个机场的气象观测和天气预报(METAR&TAF报告)。

可查询的气象台以黄色和红色小点在地图上表示。

将鼠标移到小点上方,可查看气象台名称。

然后点击查看天气观测和预报。

如需切换地图:点击带黑十字的绿色按钮放大地图;点击带横线的绿色按钮缩小地图;或者点击绿色箭头查看邻近地区的地图。


METAR-TAF: